Anselmo, Nebraska
Current Conditions -  °F | °C
As of 7:53 AM on Saturday 22 Nov 2014 (Local Time) from KBBW Reporting Station
Clear Clear  
Wind Chill: 26°   Ceiling: Unl
Heat Index: 26°   Visibility: 10mi
Dew Point: 22°   Wind: 0mph
Humidity: 84%   Direction: NA
Pressure: 29.76"   Gusts: NA
Location:  41.62°N, 99.87°W
Report Text: KBBW 221353Z AUTO 00000KT 10SM CLR M03/M06 A2976 RMK AO2 SLP095 T10331056 PWINO FZRANO $
Loading
Personal Weather Stations






























Interactive Weather Map New forecast layout! Learn more

10-Day Weather Forecast

Advertisements
Track Severe Weather on mobile